Time;durP1;ratioP1;P1;durP2;ratioP2;P2;SDS_P1;SDS_P2;PMS_P1;PMS_P2;Temp;Humidity;BMP_temperature;BMP_pressure;BME280_temperature;BME280_humidity;BME280_pressure;Samples;Min_cycle;Max_cycle;Signal;HPM_P1;HPM_P2
2022/08/04 00:02:15;;;;;;;6.80;3.17;;;27.10;56.20;;;;;;5019881;22;20296;-93
2022/08/04 00:04:49;;;;;;;11.87;4.67;;;27.10;56.20;;;;;;5005119;28;20295;-94
2022/08/04 00:07:23;;;;;;;15.20;5.20;;;27.00;56.00;;;;;;5006657;22;20851;-92
2022/08/04 00:09:55;;;;;;;12.80;5.30;;;27.00;56.10;;;;;;4988410;28;20940;-92
2022/08/04 00:12:26;;;;;;;11.87;4.87;;;27.00;56.50;;;;;;4987767;28;20319;-92
2022/08/04 00:14:58;;;;;;;10.57;4.40;;;27.00;56.40;;;;;;4984654;28;20207;-92
2022/08/04 00:17:31;;;;;;;8.73;3.70;;;27.00;55.90;;;;;;4979645;28;20234;-91
2022/08/04 00:20:01;;;;;;;6.83;3.33;;;26.90;56.20;;;;;;4987772;28;20202;-92
2022/08/04 00:22:56;;;;;;;17.23;6.43;;;26.90;56.20;;;;;;4987004;28;20210;-92
2022/08/04 00:25:24;;;;;;;15.57;5.10;;;26.90;56.60;;;;;;4988030;28;20211;-93
2022/08/04 00:27:56;;;;;;;8.70;3.27;;;26.90;56.20;;;;;;4984913;28;20202;-93
2022/08/04 00:33:27;;;;;;;10.37;3.53;;;26.80;56.10;;;;;;4981386;28;20209;-92
2022/08/04 00:35:55;;;;;;;9.30;3.67;;;26.80;56.00;;;;;;4985754;28;20234;-92
2022/08/04 00:38:55;;;;;;;6.87;2.93;;;26.80;56.20;;;;;;4984832;28;20718;-92
2022/08/04 00:41:26;;;;;;;6.33;2.70;;;26.80;56.30;;;;;;4987055;22;20225;-92
2022/08/04 00:44:17;;;;;;;17.00;5.97;;;26.70;56.20;;;;;;5000444;28;20229;-93
2022/08/04 00:50:10;;;;;;;10.83;3.93;;;26.70;56.40;;;;;;5044337;23;20232;-93
2022/08/04 00:56:20;;;;;;;8.90;3.73;;;26.70;56.20;;;;;;5010812;22;20316;-92
2022/08/04 00:58:59;;;;;;;8.13;3.30;;;26.70;56.40;;;;;;4972589;28;20195;-94
2022/08/04 01:02:16;;;;;;;7.00;3.10;;;26.60;56.20;;;;;;4971482;28;20198;-94
2022/08/04 01:08:08;;;;;;;7.67;3.27;;;26.50;55.70;;;;;;4987689;23;20311;-93
2022/08/04 01:10:47;;;;;;;9.40;3.17;;;26.50;56.10;;;;;;5011425;28;20209;-92
2022/08/04 01:13:56;;;;;;;10.37;4.33;;;26.50;56.00;;;;;;5030732;28;20268;-92
2022/08/04 01:16:25;;;;;;;12.77;4.47;;;26.40;55.90;;;;;;5055594;22;20256;-93
2022/08/04 01:19:20;;;;;;;7.93;2.50;;;26.30;56.00;;;;;;5030957;28;20299;-92
2022/08/04 01:22:18;;;;;;;14.27;5.53;;;26.30;56.00;;;;;;5028576;28;20616;-95
2022/08/04 01:25:46;;;;;;;13.00;4.63;;;26.30;56.20;;;;;;5015875;28;20215;-93
2022/08/04 01:28:59;;;;;;;11.57;4.17;;;26.30;56.00;;;;;;4927263;28;20635;-94
2022/08/04 01:31:46;;;;;;;8.17;3.47;;;26.20;56.30;;;;;;4990684;28;20197;-91
2022/08/04 01:34:21;;;;;;;11.80;3.13;;;26.20;56.20;;;;;;5026744;28;20224;-92
2022/08/04 01:36:58;;;;;;;7.70;2.67;;;26.20;56.40;;;;;;5032366;28;20274;-94
2022/08/04 01:39:51;;;;;;;10.37;4.03;;;26.10;56.70;;;;;;5025193;28;20610;-92
2022/08/04 01:42:21;;;;;;;10.43;4.10;;;26.10;56.60;;;;;;5030019;28;20211;-92
2022/08/04 01:44:50;;;;;;;12.77;4.67;;;26.10;56.50;;;;;;5021365;28;20298;-93
2022/08/04 01:47:21;;;;;;;12.57;4.67;;;26.00;56.40;;;;;;5034208;28;20198;-92
2022/08/04 01:49:53;;;;;;;7.77;3.47;;;26.00;56.80;;;;;;5038305;28;20211;-94
2022/08/04 01:53:00;;;;;;;10.43;3.87;;;26.00;56.90;;;;;;5048154;28;20197;-91
2022/08/04 01:55:29;;;;;;;9.47;3.53;;;26.00;57.30;;;;;;5045898;28;20243;-93
2022/08/04 01:57:59;;;;;;;10.63;3.57;;;26.00;57.20;;;;;;5049949;28;20661;-92
2022/08/04 02:00:29;;;;;;;7.33;3.17;;;25.90;57.30;;;;;;5039217;28;20216;-93
2022/08/04 02:02:57;;;;;;;16.03;5.43;;;25.90;57.30;;;;;;5037114;28;20208;-91
2022/08/04 02:05:26;;;;;;;7.87;2.87;;;25.90;57.40;;;;;;5022324;28;20204;-93
2022/08/04 02:08:23;;;;;;;13.70;4.63;;;25.80;57.20;;;;;;5031322;28;20641;-93
2022/08/04 02:14:01;;;;;;;7.87;3.13;;;25.80;57.70;;;;;;5023533;28;20312;-92
2022/08/04 02:16:35;;;;;;;9.93;3.57;;;25.70;57.80;;;;;;5021915;28;20237;-95
2022/08/04 02:19:13;;;;;;;8.33;3.30;;;25.70;57.70;;;;;;5010191;28;20249;-92
2022/08/04 02:21:41;;;;;;;9.33;3.50;;;25.60;57.80;;;;;;5012303;28;20646;-92
2022/08/04 02:24:14;;;;;;;9.30;3.40;;;25.60;57.90;;;;;;5010836;28;20229;-92
2022/08/04 02:26:56;;;;;;;12.57;4.63;;;25.60;58.20;;;;;;4993699;28;20659;-92
2022/08/04 02:29:34;;;;;;;9.97;3.90;;;25.50;58.80;;;;;;5009970;28;20811;-91
2022/08/04 02:32:04;;;;;;;9.23;4.07;;;25.50;58.80;;;;;;5010214;28;20236;-93
2022/08/04 02:37:53;;;;;;;15.53;5.93;;;25.50;59.10;;;;;;5007624;28;20226;-93
2022/08/04 02:40:21;;;;;;;19.10;6.97;;;25.40;59.10;;;;;;5008906;28;20220;-93
2022/08/04 02:42:51;;;;;;;39.03;14.70;;;25.40;58.50;;;;;;5019658;22;20650;-93
2022/08/04 02:45:43;;;;;;;13.93;5.83;;;25.40;58.80;;;;;;4990757;28;20218;-92
2022/08/04 02:48:30;;;;;;;10.00;4.03;;;25.40;59.70;;;;;;4988459;28;20203;-92
2022/08/04 02:51:01;;;;;;;7.40;2.90;;;25.40;59.20;;;;;;4979092;28;20654;-94
2022/08/04 02:53:37;;;;;;;6.90;2.93;;;25.40;59.30;;;;;;4992397;28;20206;-91
2022/08/04 02:56:28;;;;;;;8.27;3.97;;;25.40;59.90;;;;;;4990153;28;20225;-92
2022/08/04 03:02:28;;;;;;;11.60;5.20;;;25.30;60.00;;;;;;4986468;28;20234;-94
2022/08/04 03:05:31;;;;;;;12.33;5.70;;;25.20;59.80;;;;;;4952852;28;20678;-93
2022/08/04 03:11:57;;;;;;;15.77;8.57;;;25.20;62.30;;;;;;5051492;23;20266;-92
2022/08/04 03:14:57;;;;;;;10.50;7.97;;;25.10;62.80;;;;;;4954747;29;20254;-94
2022/08/04 03:18:13;;;;;;;13.97;8.57;;;25.10;63.20;;;;;;4909583;28;20750;-93
2022/08/04 03:21:31;;;;;;;15.77;8.80;;;25.10;64.30;;;;;;4966323;28;21021;-92
2022/08/04 03:24:52;;;;;;;17.00;10.03;;;24.90;64.30;;;;;;4957643;28;20290;-92
2022/08/04 03:27:57;;;;;;;16.10;9.07;;;24.90;64.80;;;;;;4959585;28;20777;-94
2022/08/04 03:30:36;;;;;;;15.37;8.73;;;24.90;65.20;;;;;;4991446;28;20730;-93
2022/08/04 03:33:24;;;;;;;22.10;11.80;;;24.90;64.90;;;;;;5002815;28;20209;-94
2022/08/04 03:36:36;;;;;;;19.63;10.37;;;24.80;65.60;;;;;;5004495;28;20202;-92
2022/08/04 03:39:27;;;;;;;16.03;8.67;;;24.80;66.30;;;;;;5018344;28;20498;-92
2022/08/04 03:42:32;;;;;;;15.03;9.23;;;24.80;66.00;;;;;;5008187;28;20606;-92
2022/08/04 03:45:35;;;;;;;13.50;7.87;;;24.80;66.70;;;;;;4996106;28;20263;-92
2022/08/04 03:55:13;;;;;;;16.47;9.27;;;24.80;67.10;;;;;;5007848;28;20209;-93
2022/08/04 03:57:57;;;;;;;21.20;10.37;;;24.90;67.70;;;;;;5008509;28;20229;-91
2022/08/04 04:00:30;;;;;;;14.40;8.00;;;24.90;67.40;;;;;;5019314;28;20587;-91
2022/08/04 04:03:30;;;;;;;14.13;8.00;;;24.90;67.00;;;;;;5013754;28;20732;-93
2022/08/04 04:06:55;;;;;;;12.93;7.77;;;24.90;68.60;;;;;;4993690;28;20249;-93
2022/08/04 04:09:53;;;;;;;12.60;7.03;;;24.90;68.50;;;;;;4979164;28;20260;-93
2022/08/04 04:12:52;;;;;;;13.30;7.80;;;24.90;68.10;;;;;;4971289;28;20292;-92
2022/08/04 04:15:47;;;;;;;13.33;8.20;;;24.80;68.40;;;;;;5008428;28;20616;-94
2022/08/04 04:22:02;;;;;;;13.27;7.90;;;24.90;68.70;;;;;;5005314;28;20295;-94
2022/08/04 04:25:01;;;;;;;10.90;6.77;;;24.80;68.30;;;;;;5010844;28;20206;-94
2022/08/04 04:27:42;;;;;;;10.60;6.83;;;24.90;68.80;;;;;;4996336;28;20209;-96
2022/08/04 04:30:18;;;;;;;10.30;6.47;;;24.90;68.70;;;;;;5010773;28;20205;-94
2022/08/04 04:33:17;;;;;;;10.97;6.70;;;24.90;68.60;;;;;;5011232;28;20201;-94
2022/08/04 04:35:58;;;;;;;10.53;6.97;;;24.80;69.50;;;;;;4993102;28;20885;-93
2022/08/04 04:38:47;;;;;;;35.13;15.50;;;24.80;69.30;;;;;;5012868;22;20279;-96
2022/08/04 04:41:57;;;;;;;10.60;6.43;;;24.80;69.70;;;;;;5031453;28;20282;-91
2022/08/04 04:44:53;;;;;;;13.30;7.07;;;24.90;70.20;;;;;;5028867;28;20208;-94
2022/08/04 04:47:29;;;;;;;14.50;7.87;;;24.80;69.90;;;;;;5027772;28;20267;-94
2022/08/04 04:50:04;;;;;;;7.77;6.07;;;24.80;69.40;;;;;;5018780;28;20229;-93
2022/08/04 04:52:40;;;;;;;15.63;8.27;;;24.80;69.80;;;;;;5020056;28;20207;-93
2022/08/04 04:55:20;;;;;;;14.07;7.57;;;24.80;70.20;;;;;;5026054;28;20208;-93
2022/08/04 04:58:07;;;;;;;11.37;7.00;;;24.90;71.10;;;;;;5022856;28;20227;-94
2022/08/04 05:00:49;;;;;;;11.37;6.73;;;24.80;71.00;;;;;;5023307;28;20201;-94
2022/08/04 05:06:29;;;;;;;9.37;6.63;;;24.80;71.00;;;;;;4990924;28;20901;-94
2022/08/04 05:09:30;;;;;;;10.47;6.73;;;24.90;71.10;;;;;;5031087;28;20212;-94
2022/08/04 05:12:31;;;;;;;9.80;6.13;;;24.90;71.70;;;;;;5018531;28;20215;-92
2022/08/04 05:15:03;;;;;;;8.70;6.03;;;24.90;72.00;;;;;;5028270;28;20210;-94
2022/08/04 05:17:35;;;;;;;27.90;12.30;;;24.90;71.30;;;;;;5022806;23;20237;-93
2022/08/04 05:20:13;;;;;;;10.00;6.23;;;24.90;71.60;;;;;;5027011;28;20723;-94
2022/08/04 05:22:48;;;;;;;12.87;6.70;;;24.90;72.10;;;;;;5034024;28;20716;-94
2022/08/04 05:25:21;;;;;;;11.17;6.47;;;24.90;72.40;;;;;;5029273;28;20207;-94
2022/08/04 05:27:52;;;;;;;18.70;8.67;;;24.90;72.30;;;;;;5028432;28;20219;-93
2022/08/04 05:33:48;;;;;;;9.47;6.03;;;24.90;73.90;;;;;;5035578;23;21176;-93
2022/08/04 05:36:39;;;;;;;13.13;6.63;;;24.90;72.90;;;;;;5032141;28;20208;-94
2022/08/04 05:39:13;;;;;;;10.60;5.90;;;24.80;72.80;;;;;;5031440;28;22126;-95
2022/08/04 05:41:41;;;;;;;11.17;6.30;;;24.80;73.40;;;;;;5031692;28;20238;-95
2022/08/04 05:44:37;;;;;;;9.77;5.43;;;24.80;72.90;;;;;;5032184;28;20208;-94
2022/08/04 05:47:10;;;;;;;9.27;5.50;;;24.80;74.60;;;;;;5031451;28;20581;-94
2022/08/04 05:49:43;;;;;;;13.93;6.77;;;24.90;73.80;;;;;;5031598;28;20211;-94
2022/08/04 05:52:38;;;;;;;11.83;6.33;;;24.80;73.70;;;;;;5032294;28;20223;-94
2022/08/04 05:55:07;;;;;;;22.13;10.00;;;24.80;74.80;;;;;;5043634;22;20208;-93
2022/08/04 05:57:35;;;;;;;11.23;5.73;;;24.90;74.00;;;;;;5029473;28;20245;-93
2022/08/04 06:00:29;;;;;;;9.23;5.53;;;24.90;73.70;;;;;;5032055;28;20656;-94
2022/08/04 06:02:57;;;;;;;9.30;5.37;;;24.90;74.20;;;;;;5022820;28;20227;-93
2022/08/04 06:05:33;;;;;;;10.00;5.27;;;24.90;73.90;;;;;;5019840;28;20212;-94
2022/08/04 06:10:44;;;;;;;10.33;5.00;;;24.90;74.00;;;;;;5004280;28;20216;-94
2022/08/04 06:13:29;;;;;;;9.87;5.43;;;24.90;74.20;;;;;;5011044;28;20198;-94
2022/08/04 06:15:58;;;;;;;8.67;4.70;;;25.00;74.90;;;;;;5012107;28;20239;-94
2022/08/04 06:18:29;;;;;;;10.07;5.33;;;25.00;75.00;;;;;;5020315;28;20232;-94
2022/08/04 06:21:21;;;;;;;9.17;5.17;;;25.00;74.60;;;;;;5033526;28;20209;-94
2022/08/04 06:23:50;;;;;;;10.27;5.60;;;25.00;75.10;;;;;;5053784;28;20227;-93
2022/08/04 06:26:19;;;;;;;13.53;6.40;;;25.00;74.20;;;;;;5040848;28;20215;-94
2022/08/04 06:28:57;;;;;;;9.23;5.60;;;25.00;74.50;;;;;;5018887;28;20216;-94
2022/08/04 06:31:45;;;;;;;10.17;4.93;;;25.00;75.40;;;;;;5015873;28;20198;-94
2022/08/04 06:34:17;;;;;;;9.23;5.20;;;25.10;75.30;;;;;;5036457;28;20251;-93
2022/08/04 06:36:49;;;;;;;12.80;6.00;;;25.10;74.60;;;;;;5067729;28;20194;-93
2022/08/04 06:39:16;;;;;;;13.33;6.43;;;25.10;74.70;;;;;;5073941;22;20253;-93
2022/08/04 06:41:50;;;;;;;8.53;4.70;;;25.10;74.20;;;;;;5034695;28;20207;-92
2022/08/04 06:44:19;;;;;;;10.40;5.47;;;25.10;74.80;;;;;;5033427;28;20180;-92
2022/08/04 06:46:48;;;;;;;6.97;4.07;;;25.20;74.20;;;;;;5018315;28;20245;-94
2022/08/04 06:49:26;;;;;;;9.13;4.40;;;25.20;74.10;;;;;;5014750;28;20202;-94
2022/08/04 06:52:01;;;;;;;7.77;4.47;;;25.20;74.10;;;;;;5013908;28;20561;-94
2022/08/04 06:54:29;;;;;;;6.67;3.53;;;25.20;74.50;;;;;;5027930;23;20238;-93
2022/08/04 06:57:00;;;;;;;7.47;3.73;;;25.20;73.80;;;;;;5032988;28;20973;-93
2022/08/04 06:59:30;;;;;;;6.73;3.60;;;25.30;73.80;;;;;;5032819;28;20189;-93
2022/08/04 07:02:18;;;;;;;7.83;4.03;;;25.30;74.20;;;;;;5033267;28;20554;-93
2022/08/04 07:04:46;;;;;;;11.37;5.03;;;25.30;74.20;;;;;;5013717;28;20700;-93
2022/08/04 07:07:15;;;;;;;9.47;4.77;;;25.30;73.60;;;;;;5012768;28;20240;-94
2022/08/04 07:09:48;;;;;;;4.80;2.70;;;25.40;74.20;;;;;;5014270;28;20212;-96
2022/08/04 07:12:21;;;;;;;10.93;5.07;;;25.40;73.10;;;;;;5013520;28;20206;-94
2022/08/04 07:14:50;;;;;;;21.17;8.70;;;25.40;73.00;;;;;;5020840;23;20276;-94
2022/08/04 07:17:18;;;;;;;9.07;3.57;;;25.40;72.80;;;;;;5032208;28;20224;-92
2022/08/04 07:19:51;;;;;;;6.77;3.27;;;25.50;72.50;;;;;;5031789;28;20201;-94
2022/08/04 07:22:21;;;;;;;6.07;3.17;;;25.50;72.40;;;;;;5030307;28;20212;-95
2022/08/04 07:24:54;;;;;;;7.93;3.17;;;25.60;72.30;;;;;;5032704;28;20208;-95
2022/08/04 07:27:22;;;;;;;9.93;4.30;;;25.60;72.00;;;;;;5032774;28;20673;-94
2022/08/04 07:29:50;;;;;;;5.27;3.17;;;25.60;72.00;;;;;;5032118;28;20262;-94
2022/08/04 07:32:18;;;;;;;7.20;3.43;;;25.70;71.70;;;;;;5031860;28;20243;-94
2022/08/04 07:37:17;;;;;;;9.27;3.93;;;25.80;71.80;;;;;;5036662;22;20236;-93
2022/08/04 07:39:49;;;;;;;6.33;3.63;;;25.80;71.80;;;;;;5032296;28;20292;-93
2022/08/04 07:42:20;;;;;;;9.27;3.83;;;25.90;71.80;;;;;;5029588;28;20558;-94
2022/08/04 07:44:47;;;;;;;7.23;2.90;;;25.90;71.50;;;;;;5026534;28;20201;-92
2022/08/04 07:47:14;;;;;;;8.97;4.20;;;26.00;71.20;;;;;;5030137;28;20204;-94
2022/08/04 07:49:43;;;;;;;5.87;3.00;;;26.00;71.00;;;;;;5032569;28;20315;-95
2022/08/04 07:52:10;;;;;;;7.23;3.40;;;26.10;70.60;;;;;;5032524;28;20205;-92
2022/08/04 07:54:40;;;;;;;9.27;3.60;;;26.10;70.10;;;;;;5032105;28;20566;-94
2022/08/04 07:57:17;;;;;;;7.73;3.93;;;26.20;69.90;;;;;;5031678;28;20270;-92
2022/08/04 08:00:13;;;;;;;7.93;3.80;;;26.30;69.30;;;;;;5031358;28;20205;-93
2022/08/04 08:02:48;;;;;;;8.10;3.80;;;26.30;68.90;;;;;;5028148;28;20212;-93
2022/08/04 08:05:17;;;;;;;8.60;3.50;;;26.30;68.90;;;;;;5029055;28;20271;-95
2022/08/04 08:07:47;;;;;;;6.53;3.17;;;26.40;69.10;;;;;;5031067;28;20201;-94
2022/08/04 08:10:17;;;;;;;9.10;4.00;;;26.40;69.10;;;;;;5031481;28;20272;-92
2022/08/04 08:12:50;;;;;;;7.97;3.43;;;26.40;68.90;;;;;;5037428;28;20188;-95
2022/08/04 08:15:19;;;;;;;7.00;3.30;;;26.50;68.60;;;;;;5046962;28;20217;-94
2022/08/04 08:17:52;;;;;;;6.37;2.47;;;26.50;68.50;;;;;;5012404;28;20229;-94
2022/08/04 08:20:20;;;;;;;5.47;2.83;;;26.60;68.60;;;;;;5008544;28;20252;-93
2022/08/04 08:22:50;;;;;;;4.97;2.27;;;26.60;67.80;;;;;;5013067;28;20260;-94
2022/08/04 08:25:19;;;;;;;9.03;3.13;;;26.60;67.50;;;;;;5000784;28;20233;-94
2022/08/04 08:27:51;;;;;;;11.33;4.43;;;26.70;68.10;;;;;;5004674;28;20272;-93
2022/08/04 08:30:25;;;;;;;14.90;5.83;;;26.70;67.10;;;;;;4998856;28;20215;-92
2022/08/04 08:32:53;;;;;;;8.67;3.70;;;26.70;66.90;;;;;;5011741;28;20243;-93
2022/08/04 08:35:35;;;;;;;8.73;3.70;;;26.80;67.20;;;;;;5005949;28;20271;-95
2022/08/04 08:38:05;;;;;;;6.37;2.97;;;26.80;66.90;;;;;;5012302;28;20232;-93
2022/08/04 08:40:53;;;;;;;7.17;3.43;;;26.90;67.00;;;;;;4996180;28;20214;-92
2022/08/04 08:43:55;;;;;;;6.30;2.67;;;26.90;66.70;;;;;;5012234;28;20208;-93
2022/08/04 08:46:41;;;;;;;10.43;3.77;;;26.90;66.40;;;;;;5010676;28;20270;-92
2022/08/04 08:50:05;;;;;;;10.43;3.43;;;27.00;65.60;;;;;;5006595;22;20893;-93
2022/08/04 08:52:49;;;;;;;12.50;5.00;;;27.00;65.80;;;;;;4990448;28;20205;-94
2022/08/04 08:55:32;;;;;;;7.03;3.00;;;27.10;66.10;;;;;;5011572;28;20205;-92
2022/08/04 08:58:20;;;;;;;7.67;3.07;;;27.10;65.80;;;;;;5010835;28;20259;-92
2022/08/04 09:00:57;;;;;;;4.73;2.17;;;27.20;65.00;;;;;;5011960;28;20222;-94
2022/08/04 09:04:02;;;;;;;5.70;2.83;;;27.30;65.50;;;;;;5011279;28;20295;-93
2022/08/04 09:07:03;;;;;;;7.73;3.37;;;27.30;65.30;;;;;;5019367;28;20212;-94
2022/08/04 09:09:55;;;;;;;7.10;2.97;;;27.50;64.30;;;;;;4987962;28;20220;-93
2022/08/04 09:12:51;;;;;;;8.30;3.23;;;27.60;64.00;;;;;;5008916;28;20256;-91
2022/08/04 09:15:27;;;;;;;20.77;8.30;;;27.70;63.10;;;;;;5016797;22;20201;-92
2022/08/04 09:18:03;;;;;;;7.57;2.93;;;27.90;63.30;;;;;;4998800;28;20673;-92
2022/08/04 09:20:39;;;;;;;7.37;3.23;;;28.00;63.30;;;;;;4989164;28;20208;-93
2022/08/04 09:23:29;;;;;;;8.00;3.50;;;28.20;62.80;;;;;;4994629;28;20213;-96
2022/08/04 09:26:04;;;;;;;7.03;3.00;;;28.30;61.70;;;;;;4991335;28;20245;-92
2022/08/04 09:28:53;;;;;;;13.57;5.13;;;28.50;61.30;;;;;;5007118;28;20193;-93
2022/08/04 09:34:43;;;;;;;5.40;2.60;;;28.80;60.40;;;;;;5000516;28;20216;-93
2022/08/04 09:37:22;;;;;;;4.97;2.60;;;28.90;59.60;;;;;;5005553;28;20656;-92
2022/08/04 09:40:00;;;;;;;4.83;1.63;;;29.00;59.10;;;;;;5003157;28;20260;-92
2022/08/04 09:45:07;;;;;;;6.97;2.73;;;29.30;59.30;;;;;;5018476;22;20240;-94
2022/08/04 09:47:43;;;;;;;5.50;2.73;;;29.30;58.30;;;;;;5011636;28;20217;-95
2022/08/04 09:50:32;;;;;;;8.73;3.23;;;29.50;58.20;;;;;;5020899;23;20240;-93
2022/08/04 09:53:13;;;;;;;6.10;2.00;;;29.60;58.00;;;;;;5015114;28;20304;-93
2022/08/04 09:56:04;;;;;;;14.80;5.53;;;29.80;57.80;;;;;;5006895;28;20954;-92
2022/08/04 09:58:52;;;;;;;8.30;3.70;;;30.00;57.40;;;;;;5056343;22;20328;-92
2022/08/04 10:01:39;;;;;;;8.43;3.47;;;30.10;56.50;;;;;;5007441;28;20937;-94
2022/08/04 10:04:13;;;;;;;9.03;2.73;;;30.30;57.00;;;;;;5009309;28;20217;-94
2022/08/04 10:07:29;;;;;;;4.80;2.73;;;30.40;57.20;;;;;;5012471;28;20230;-93
2022/08/04 10:13:44;;;;;;;12.90;5.50;;;30.50;56.90;;;;;;5081539;27;20571;-93
2022/08/04 10:16:28;;;;;;;3.70;2.20;;;30.90;55.20;;;;;;5020566;28;20252;-93
2022/08/04 10:19:06;;;;;;;7.22;3.60;;;31.10;55.30;;;;;;5020169;28;20204;-94
2022/08/04 10:21:43;;;;;;;9.02;3.95;;;31.20;55.70;;;;;;5025483;28;20205;-93
2022/08/04 10:24:42;;;;;;;6.20;3.28;;;31.30;54.80;;;;;;5023874;28;20201;-95
2022/08/04 10:27:17;;;;;;;5.25;2.78;;;31.40;54.70;;;;;;5025055;28;20226;-94
2022/08/04 10:29:46;;;;;;;9.20;3.83;;;31.60;55.00;;;;;;5017869;28;20208;-94
2022/08/04 10:32:19;;;;;;;5.65;2.92;;;31.70;54.90;;;;;;5017897;28;20294;-92
2022/08/04 10:35:16;;;;;;;6.07;3.03;;;31.80;54.00;;;;;;5015806;28;20229;-94
2022/08/04 10:38:01;;;;;;;9.45;3.92;;;32.00;53.60;;;;;;5017726;28;20213;-90
2022/08/04 10:40:39;;;;;;;13.65;6.38;;;32.10;53.40;;;;;;5015841;28;20266;-91
2022/08/04 10:43:15;;;;;;;9.30;4.70;;;32.30;54.20;;;;;;5015577;28;20686;-92
2022/08/04 10:45:49;;;;;;;7.35;3.97;;;32.40;53.40;;;;;;5016902;28;20293;-93
2022/08/04 10:48:36;;;;;;;7.65;3.75;;;32.60;53.00;;;;;;5017126;28;20214;-92
2022/08/04 10:51:44;;;;;;;6.75;3.33;;;32.80;52.10;;;;;;5016961;28;20229;-90
2022/08/04 10:54:17;;;;;;;7.28;3.42;;;33.00;51.60;;;;;;5013836;28;20202;-93
2022/08/04 10:56:52;;;;;;;4.60;2.80;;;33.10;52.60;;;;;;5017651;28;20251;-94
2022/08/04 10:59:26;;;;;;;6.90;3.25;;;33.20;51.80;;;;;;5016592;28;20201;-93
2022/08/04 11:01:59;;;;;;;6.00;3.40;;;33.20;51.60;;;;;;5016168;28;20691;-93
2022/08/04 11:04:59;;;;;;;8.07;4.38;;;33.30;51.60;;;;;;5017682;28;20290;-91
2022/08/04 11:07:33;;;;;;;10.07;3.47;;;33.40;50.80;;;;;;5015962;27;20625;-91
2022/08/04 11:10:01;;;;;;;5.43;2.95;;;33.50;51.80;;;;;;5019810;28;20213;-95
2022/08/04 11:12:31;;;;;;;6.15;3.67;;;33.60;51.20;;;;;;5024536;28;20297;-91
2022/08/04 11:15:03;;;;;;;6.72;3.22;;;33.70;51.00;;;;;;5041966;28;20368;-93
2022/08/04 11:17:35;;;;;;;5.13;2.85;;;33.90;50.60;;;;;;5042811;27;20561;-93
2022/08/04 11:20:21;;;;;;;4.70;2.53;;;33.90;50.50;;;;;;5031785;27;20283;-93
2022/08/04 11:22:55;;;;;;;3.53;1.98;;;34.10;50.00;;;;;;5023459;27;20236;-93
2022/08/04 11:25:29;;;;;;;5.15;2.75;;;34.30;50.70;;;;;;5012526;28;20211;-94
2022/08/04 11:28:09;;;;;;;6.47;3.47;;;34.40;49.80;;;;;;5010493;28;20213;-93
2022/08/04 11:30:47;;;;;;;5.72;3.22;;;34.60;49.20;;;;;;5010299;28;20205;-92
2022/08/04 11:33:44;;;;;;;5.10;2.67;;;34.70;49.10;;;;;;5010289;28;20949;-93
2022/08/04 11:36:20;;;;;;;6.10;2.97;;;34.80;48.80;;;;;;5008773;28;20271;-94
2022/08/04 11:38:56;;;;;;;5.22;2.88;;;34.90;48.70;;;;;;5008831;28;20284;-95
2022/08/04 11:41:34;;;;;;;7.20;4.18;;;35.00;48.60;;;;;;5009930;28;20217;-94
2022/08/04 11:44:02;;;;;;;7.65;3.83;;;35.00;48.10;;;;;;5007958;28;20269;-92
2022/08/04 11:46:36;;;;;;;5.40;3.13;;;35.10;48.60;;;;;;5022778;28;20214;-89
2022/08/04 11:49:07;;;;;;;5.55;3.35;;;35.10;47.70;;;;;;5013939;28;20204;-95
2022/08/04 11:51:37;;;;;;;8.85;4.55;;;35.20;47.70;;;;;;5011577;28;20554;-93
2022/08/04 11:54:14;;;;;;;4.75;2.78;;;35.10;47.60;;;;;;5010272;28;20703;-92
2022/08/04 11:56:43;;;;;;;4.93;3.08;;;35.10;46.40;;;;;;5008685;28;20213;-96
2022/08/04 11:59:11;;;;;;;8.32;3.63;;;35.10;47.60;;;;;;5008883;28;20216;-92
2022/08/04 12:02:12;;;;;;;6.93;3.25;;;35.10;47.00;;;;;;5008957;28;20227;-93
2022/08/04 12:04:50;;;;;;;6.53;2.90;;;35.00;46.40;;;;;;5028435;28;20205;-90
2022/08/04 12:10:38;;;;;;;5.07;2.97;;;34.80;46.90;;;;;;5094598;22;20704;-96
2022/08/04 12:13:15;;;;;;;9.75;4.93;;;34.70;46.50;;;;;;5095276;28;20230;-92
2022/08/04 12:15:52;;;;;;;6.47;3.42;;;34.70;46.80;;;;;;5092364;28;20223;-91
2022/08/04 12:18:37;;;;;;;7.05;3.30;;;34.60;46.10;;;;;;5092042;28;20237;-93
2022/08/04 12:21:48;;;;;;;8.35;3.25;;;34.60;46.60;;;;;;5092052;28;20195;-92
2022/08/04 12:27:24;;;;;;;5.50;2.67;;;34.60;47.10;;;;;;5108980;22;20355;-93
2022/08/04 12:30:11;;;;;;;8.00;3.55;;;34.60;46.80;;;;;;5100887;28;20600;-94
2022/08/04 12:32:47;;;;;;;5.68;3.22;;;34.60;46.70;;;;;;5101868;22;20291;-92
2022/08/04 12:35:21;;;;;;;4.85;2.42;;;34.80;46.30;;;;;;5082874;28;20224;-92
2022/08/04 12:38:01;;;;;;;7.95;3.55;;;34.80;46.30;;;;;;5071096;28;20224;-93
2022/08/04 12:40:34;;;;;;;5.10;3.03;;;34.80;45.50;;;;;;5072282;28;20268;-95
2022/08/04 12:43:10;;;;;;;5.95;3.22;;;34.90;45.90;;;;;;5089633;28;20202;-93
2022/08/04 12:48:32;;;;;;;4.93;2.63;;;35.10;45.30;;;;;;5098865;22;20238;-93
2022/08/04 12:51:00;;;;;;;5.95;2.67;;;35.10;45.80;;;;;;5091742;28;20229;-92
2022/08/04 12:53:32;;;;;;;4.57;2.60;;;35.10;45.50;;;;;;5092790;28;20234;-93
2022/08/04 12:56:04;;;;;;;5.95;3.15;;;35.10;45.50;;;;;;5089569;28;20289;-94
2022/08/04 13:01:40;;;;;;;7.00;2.83;;;35.30;45.10;;;;;;5093794;28;20256;-95
2022/08/04 13:04:15;;;;;;;6.50;3.50;;;35.30;45.50;;;;;;5093810;28;20198;-94
2022/08/04 13:06:44;;;;;;;3.42;2.30;;;35.40;44.90;;;;;;5091277;28;20245;-92
2022/08/04 13:09:44;;;;;;;4.68;2.28;;;35.50;45.00;;;;;;5090874;28;20260;-96
2022/08/04 13:12:21;;;;;;;6.35;2.88;;;35.50;44.20;;;;;;5067366;28;20262;-90
2022/08/04 13:14:54;;;;;;;4.43;2.50;;;35.60;43.40;;;;;;5077544;28;20230;-94
2022/08/04 13:17:56;;;;;;;4.70;3.55;;;35.60;44.10;;;;;;5071104;28;20256;-95
2022/08/04 13:20:29;;;;;;;4.60;2.65;;;35.70;43.40;;;;;;5069495;28;20295;-94
2022/08/04 13:25:42;;;;;;;5.10;3.22;;;35.70;43.30;;;;;;5038397;22;20235;-94
2022/08/04 13:28:41;;;;;;;6.55;3.58;;;35.70;43.50;;;;;;5032117;28;20224;-94
2022/08/04 13:31:33;;;;;;;5.55;3.45;;;35.70;43.30;;;;;;5088799;22;20341;-95
2022/08/04 13:36:51;;;;;;;5.68;3.35;;;35.80;43.10;;;;;;5077819;28;20207;-92
2022/08/04 13:39:48;;;;;;;5.13;3.05;;;35.80;43.40;;;;;;5091484;28;20215;-96
2022/08/04 13:42:18;;;;;;;9.35;3.50;;;35.90;42.10;;;;;;5090374;28;20230;-93
2022/08/04 13:44:52;;;;;;;5.43;2.72;;;35.90;42.50;;;;;;5090762;28;20210;-95
2022/08/04 13:47:27;;;;;;;5.32;3.10;;;35.90;42.30;;;;;;5090820;28;20190;-94
2022/08/04 13:50:25;;;;;;;7.95;3.28;;;35.90;42.10;;;;;;5090059;28;20289;-96
2022/08/04 13:52:55;;;;;;;5.18;3.20;;;35.90;41.50;;;;;;5050543;28;20227;-94
2022/08/04 13:55:25;;;;;;;5.30;3.13;;;35.90;42.00;;;;;;5090537;28;20542;-93
2022/08/04 13:58:02;;;;;;;6.47;3.30;;;35.90;41.80;;;;;;5090666;28;20205;-95
2022/08/04 14:03:38;;;;;;;5.78;3.38;;;35.80;41.20;;;;;;5107511;22;20245;-93
2022/08/04 14:06:12;;;;;;;5.05;3.45;;;35.70;41.70;;;;;;5088953;28;20252;-95
2022/08/04 14:09:13;;;;;;;6.22;3.55;;;35.60;41.60;;;;;;5087090;28;20715;-93
2022/08/04 14:11:45;;;;;;;5.05;2.78;;;35.40;41.40;;;;;;5070476;28;20204;-94
2022/08/04 14:14:19;;;;;;;8.07;3.67;;;35.20;41.80;;;;;;5070215;28;20225;-96
2022/08/04 14:17:05;;;;;;;6.20;2.80;;;35.00;41.70;;;;;;5071803;28;20244;-93
2022/08/04 14:20:03;;;;;;;7.65;3.40;;;34.90;41.60;;;;;;5082446;28;20214;-90
2022/08/04 14:22:36;;;;;;;5.60;2.63;;;34.70;42.40;;;;;;5081976;28;20203;-93
2022/08/04 14:25:10;;;;;;;6.55;2.65;;;34.50;42.50;;;;;;5088886;28;20205;-93
2022/08/04 14:27:46;;;;;;;8.27;3.47;;;34.40;42.30;;;;;;5090663;28;20209;-93
2022/08/04 14:30:30;;;;;;;4.45;2.28;;;34.30;42.40;;;;;;5096347;28;20197;-95
2022/08/04 14:33:26;;;;;;;3.72;2.47;;;34.20;42.40;;;;;;5091945;28;20241;-96
2022/08/04 14:36:08;;;;;;;4.88;2.95;;;34.10;42.30;;;;;;5093898;28;20215;-92
2022/08/04 14:38:49;;;;;;;7.75;3.55;;;34.10;42.00;;;;;;5107564;28;20198;-91
2022/08/04 14:41:28;;;;;;;3.28;2.08;;;34.00;41.90;;;;;;5100026;28;20269;-94
2022/08/04 14:44:03;;;;;;;3.97;2.28;;;33.90;41.80;;;;;;5094180;28;20187;-94
2022/08/04 14:46:51;;;;;;;5.95;3.05;;;33.80;42.00;;;;;;5093276;28;20215;-93
2022/08/04 14:49:20;;;;;;;6.60;2.60;;;33.70;42.20;;;;;;5110899;22;20572;-93
2022/08/04 14:51:55;;;;;;;5.88;2.80;;;33.70;42.10;;;;;;5111965;28;20202;-94
2022/08/04 14:54:47;;;;;;;6.50;3.15;;;33.60;42.00;;;;;;5110478;28;20282;-95
2022/08/04 14:57:24;;;;;;;9.05;4.00;;;33.40;41.90;;;;;;5102193;28;20541;-91
2022/08/04 14:59:51;;;;;;;3.65;2.22;;;33.30;42.00;;;;;;5116190;28;20280;-95
2022/08/04 15:02:22;;;;;;;9.35;3.03;;;33.20;42.30;;;;;;5117029;28;20699;-94
2022/08/04 15:05:08;;;;;;;6.47;2.45;;;33.10;42.50;;;;;;5115563;28;20255;-95
2022/08/04 15:07:38;;;;;;;8.88;4.03;;;32.90;42.40;;;;;;5113554;28;20947;-94
2022/08/04 15:10:05;;;;;;;7.43;3.65;;;32.90;42.80;;;;;;5114890;28;20281;-92